sensor_id;sensor_type;location;lat;lon;timestamp;P1;durP1;ratioP1;P2;durP2;ratioP2
16662;SDS011;8445;51.270;9.434;2024-03-23T00:55:43;8.32;;;7.72;;
16662;SDS011;8445;51.270;9.434;2024-03-23T00:58:09;9.25;;;8.40;;
16662;SDS011;8445;51.270;9.434;2024-03-23T01:00:35;8.98;;;8.27;;
16662;SDS011;8445;51.270;9.434;2024-03-23T01:03:01;8.98;;;8.18;;
16662;SDS011;8445;51.270;9.434;2024-03-23T01:05:27;10.43;;;9.00;;
16662;SDS011;8445;51.270;9.434;2024-03-23T01:07:53;9.52;;;8.55;;
16662;SDS011;8445;51.270;9.434;2024-03-23T01:10:19;8.80;;;7.93;;
16662;SDS011;8445;51.270;9.434;2024-03-23T01:12:45;7.25;;;6.85;;
16662;SDS011;8445;51.270;9.434;2024-03-23T01:15:14;8.15;;;7.55;;
16662;SDS011;8445;51.270;9.434;2024-03-23T01:17:40;6.60;;;6.32;;
16662;SDS011;8445;51.270;9.434;2024-03-23T01:20:06;7.15;;;6.75;;
16662;SDS011;8445;51.270;9.434;2024-03-23T01:22:32;7.43;;;6.82;;
16662;SDS011;8445;51.270;9.434;2024-03-23T01:24:58;7.82;;;7.15;;
16662;SDS011;8445;51.270;9.434;2024-03-23T01:27:24;8.25;;;7.53;;
16662;SDS011;8445;51.270;9.434;2024-03-23T01:29:50;7.20;;;6.60;;
16662;SDS011;8445;51.270;9.434;2024-03-23T01:32:18;8.18;;;7.10;;
16662;SDS011;8445;51.270;9.434;2024-03-23T01:34:47;8.00;;;7.30;;
16662;SDS011;8445;51.270;9.434;2024-03-23T01:37:13;7.40;;;6.80;;
16662;SDS011;8445;51.270;9.434;2024-03-23T01:39:39;8.07;;;7.47;;
16662;SDS011;8445;51.270;9.434;2024-03-23T01:42:05;6.10;;;5.90;;
16662;SDS011;8445;51.270;9.434;2024-03-23T01:44:31;7.65;;;7.13;;
16662;SDS011;8445;51.270;9.434;2024-03-23T01:46:57;8.75;;;8.02;;
16662;SDS011;8445;51.270;9.434;2024-03-23T01:49:24;7.95;;;7.30;;
16662;SDS011;8445;51.270;9.434;2024-03-23T01:51:50;7.30;;;6.65;;
16662;SDS011;8445;51.270;9.434;2024-03-23T01:54:16;6.57;;;6.27;;
16662;SDS011;8445;51.270;9.434;2024-03-23T01:56:42;12.05;;;6.85;;
16662;SDS011;8445;51.270;9.434;2024-03-23T01:59:11;10.10;;;7.63;;
16662;SDS011;8445;51.270;9.434;2024-03-23T02:01:38;8.27;;;7.68;;
16662;SDS011;8445;51.270;9.434;2024-03-23T02:04:04;7.00;;;6.50;;
16662;SDS011;8445;51.270;9.434;2024-03-23T02:06:30;12.40;;;7.78;;
16662;SDS011;8445;51.270;9.434;2024-03-23T02:08:56;6.15;;;5.95;;
16662;SDS011;8445;51.270;9.434;2024-03-23T02:11:22;7.47;;;6.77;;
16662;SDS011;8445;51.270;9.434;2024-03-23T02:13:48;8.63;;;6.65;;
16662;SDS011;8445;51.270;9.434;2024-03-23T02:16:14;9.67;;;8.20;;
16662;SDS011;8445;51.270;9.434;2024-03-23T02:18:40;7.17;;;6.47;;
16662;SDS011;8445;51.270;9.434;2024-03-23T02:21:09;7.20;;;6.70;;
16662;SDS011;8445;51.270;9.434;2024-03-23T02:23:35;8.80;;;7.87;;
16662;SDS011;8445;51.270;9.434;2024-03-23T02:26:03;13.10;;;7.47;;
16662;SDS011;8445;51.270;9.434;2024-03-23T02:28:31;11.15;;;6.75;;
16662;SDS011;8445;51.270;9.434;2024-03-23T02:30:57;8.82;;;7.38;;
16662;SDS011;8445;51.270;9.434;2024-03-23T02:33:25;7.80;;;7.28;;
16662;SDS011;8445;51.270;9.434;2024-03-23T02:35:55;14.77;;;9.10;;
16662;SDS011;8445;51.270;9.434;2024-03-23T02:38:22;7.70;;;7.20;;
16662;SDS011;8445;51.270;9.434;2024-03-23T02:40:48;7.40;;;6.93;;
16662;SDS011;8445;51.270;9.434;2024-03-23T02:43:15;8.23;;;7.53;;
16662;SDS011;8445;51.270;9.434;2024-03-23T02:45:44;9.40;;;8.80;;
16662;SDS011;8445;51.270;9.434;2024-03-23T02:48:09;9.70;;;8.80;;
16662;SDS011;8445;51.270;9.434;2024-03-23T02:50:35;10.00;;;9.20;;
16662;SDS011;8445;51.270;9.434;2024-03-23T02:53:01;10.90;;;9.87;;
16662;SDS011;8445;51.270;9.434;2024-03-23T02:55:27;9.87;;;9.27;;
16662;SDS011;8445;51.270;9.434;2024-03-23T02:57:53;10.20;;;9.27;;
16662;SDS011;8445;51.270;9.434;2024-03-23T03:00:20;12.33;;;9.43;;
16662;SDS011;8445;51.270;9.434;2024-03-23T03:02:47;9.93;;;9.10;;
16662;SDS011;8445;51.270;9.434;2024-03-23T03:05:13;8.93;;;8.43;;
16662;SDS011;8445;51.270;9.434;2024-03-23T03:07:39;9.63;;;8.83;;
16662;SDS011;8445;51.270;9.434;2024-03-23T03:10:06;9.17;;;8.67;;
16662;SDS011;8445;51.270;9.434;2024-03-23T03:12:35;9.13;;;8.63;;
16662;SDS011;8445;51.270;9.434;2024-03-23T03:15:04;9.30;;;8.60;;
16662;SDS011;8445;51.270;9.434;2024-03-23T03:17:30;9.47;;;8.90;;
16662;SDS011;8445;51.270;9.434;2024-03-23T03:20:01;9.50;;;8.90;;
16662;SDS011;8445;51.270;9.434;2024-03-23T03:22:29;9.33;;;8.83;;
16662;SDS011;8445;51.270;9.434;2024-03-23T03:24:55;9.07;;;8.60;;
16662;SDS011;8445;51.270;9.434;2024-03-23T03:27:21;10.23;;;9.70;;
16662;SDS011;8445;51.270;9.434;2024-03-23T03:29:48;10.20;;;9.43;;
16662;SDS011;8445;51.270;9.434;2024-03-23T03:32:34;9.77;;;9.13;;
16662;SDS011;8445;51.270;9.434;2024-03-23T03:35:03;10.27;;;9.60;;
16662;SDS011;8445;51.270;9.434;2024-03-23T03:37:29;9.43;;;9.03;;
16662;SDS011;8445;51.270;9.434;2024-03-23T03:39:55;9.20;;;8.80;;
16662;SDS011;8445;51.270;9.434;2024-03-23T03:42:21;10.40;;;9.60;;
16662;SDS011;8445;51.270;9.434;2024-03-23T03:44:47;10.40;;;9.80;;
16662;SDS011;8445;51.270;9.434;2024-03-23T03:47:13;9.80;;;9.30;;
16662;SDS011;8445;51.270;9.434;2024-03-23T03:49:39;10.07;;;9.50;;
16662;SDS011;8445;51.270;9.434;2024-03-23T03:52:05;9.83;;;9.40;;
16662;SDS011;8445;51.270;9.434;2024-03-23T03:54:31;10.57;;;9.60;;
16662;SDS011;8445;51.270;9.434;2024-03-23T03:57:00;9.43;;;8.83;;
16662;SDS011;8445;51.270;9.434;2024-03-23T03:59:27;9.67;;;9.17;;
16662;SDS011;8445;51.270;9.434;2024-03-23T04:01:52;9.57;;;8.97;;
16662;SDS011;8445;51.270;9.434;2024-03-23T04:04:18;9.43;;;9.00;;
16662;SDS011;8445;51.270;9.434;2024-03-23T04:06:45;11.30;;;9.30;;
16662;SDS011;8445;51.270;9.434;2024-03-23T04:09:11;9.10;;;8.70;;
16662;SDS011;8445;51.270;9.434;2024-03-23T04:11:37;9.40;;;8.90;;
16662;SDS011;8445;51.270;9.434;2024-03-23T04:14:03;8.60;;;8.20;;
16662;SDS011;8445;51.270;9.434;2024-03-23T04:16:29;8.80;;;8.40;;
16662;SDS011;8445;51.270;9.434;2024-03-23T04:19:03;9.27;;;8.40;;
16662;SDS011;8445;51.270;9.434;2024-03-23T04:21:29;9.07;;;8.33;;
16662;SDS011;8445;51.270;9.434;2024-03-23T04:24:03;8.60;;;8.20;;
16662;SDS011;8445;51.270;9.434;2024-03-23T04:26:43;10.07;;;8.63;;
16662;SDS011;8445;51.270;9.434;2024-03-23T04:29:09;9.07;;;8.60;;
16662;SDS011;8445;51.270;9.434;2024-03-23T04:31:35;9.53;;;9.03;;
16662;SDS011;8445;51.270;9.434;2024-03-23T04:34:01;9.30;;;8.80;;
16662;SDS011;8445;51.270;9.434;2024-03-23T04:36:27;8.73;;;8.33;;
16662;SDS011;8445;51.270;9.434;2024-03-23T04:38:53;13.13;;;8.90;;
16662;SDS011;8445;51.270;9.434;2024-03-23T04:41:22;9.30;;;8.70;;
16662;SDS011;8445;51.270;9.434;2024-03-23T04:43:50;9.13;;;8.40;;
16662;SDS011;8445;51.270;9.434;2024-03-23T04:46:17;10.47;;;8.77;;
16662;SDS011;8445;51.270;9.434;2024-03-23T04:48:43;9.60;;;9.00;;
16662;SDS011;8445;51.270;9.434;2024-03-23T04:51:21;9.30;;;8.57;;
16662;SDS011;8445;51.270;9.434;2024-03-23T04:53:50;8.33;;;7.83;;
16662;SDS011;8445;51.270;9.434;2024-03-23T04:56:30;8.40;;;7.80;;
16662;SDS011;8445;51.270;9.434;2024-03-23T04:58:57;8.20;;;7.73;;
16662;SDS011;8445;51.270;9.434;2024-03-23T05:01:27;7.97;;;7.57;;
16662;SDS011;8445;51.270;9.434;2024-03-23T05:03:55;8.13;;;7.70;;
16662;SDS011;8445;51.270;9.434;2024-03-23T05:06:22;8.97;;;8.47;;
16662;SDS011;8445;51.270;9.434;2024-03-23T05:08:49;8.50;;;7.80;;
16662;SDS011;8445;51.270;9.434;2024-03-23T05:11:16;8.90;;;8.40;;
16662;SDS011;8445;51.270;9.434;2024-03-23T05:13:47;8.13;;;7.83;;
16662;SDS011;8445;51.270;9.434;2024-03-23T05:16:12;8.33;;;7.93;;
16662;SDS011;8445;51.270;9.434;2024-03-23T05:18:38;8.57;;;8.17;;
16662;SDS011;8445;51.270;9.434;2024-03-23T05:21:04;7.87;;;7.57;;
16662;SDS011;8445;51.270;9.434;2024-03-23T05:23:30;8.33;;;8.03;;
16662;SDS011;8445;51.270;9.434;2024-03-23T05:25:59;8.10;;;7.80;;
16662;SDS011;8445;51.270;9.434;2024-03-23T05:28:25;9.70;;;9.20;;
16662;SDS011;8445;51.270;9.434;2024-03-23T05:30:54;9.30;;;8.83;;
16662;SDS011;8445;51.270;9.434;2024-03-23T05:33:27;8.80;;;8.40;;
16662;SDS011;8445;51.270;9.434;2024-03-23T05:35:56;8.07;;;7.77;;
16662;SDS011;8445;51.270;9.434;2024-03-23T05:38:24;7.93;;;7.63;;
16662;SDS011;8445;51.270;9.434;2024-03-23T05:40:58;7.30;;;7.00;;
16662;SDS011;8445;51.270;9.434;2024-03-23T05:43:28;7.57;;;7.17;;
16662;SDS011;8445;51.270;9.434;2024-03-23T05:48:20;7.63;;;7.20;;
16662;SDS011;8445;51.270;9.434;2024-03-23T05:50:50;7.40;;;7.10;;
16662;SDS011;8445;51.270;9.434;2024-03-23T05:53:16;7.60;;;7.30;;
16662;SDS011;8445;51.270;9.434;2024-03-23T05:55:49;7.10;;;6.80;;
16662;SDS011;8445;51.270;9.434;2024-03-23T05:58:16;7.33;;;7.03;;
16662;SDS011;8445;51.270;9.434;2024-03-23T06:00:43;7.37;;;6.97;;
16662;SDS011;8445;51.270;9.434;2024-03-23T06:03:10;6.90;;;6.60;;
16662;SDS011;8445;51.270;9.434;2024-03-23T06:05:39;6.70;;;6.40;;
16662;SDS011;8445;51.270;9.434;2024-03-23T06:08:08;6.20;;;6.00;;
16662;SDS011;8445;51.270;9.434;2024-03-23T06:10:37;6.20;;;6.00;;
16662;SDS011;8445;51.270;9.434;2024-03-23T06:13:03;6.30;;;6.10;;
16662;SDS011;8445;51.270;9.434;2024-03-23T06:15:29;6.40;;;6.20;;
16662;SDS011;8445;51.270;9.434;2024-03-23T06:17:56;6.70;;;6.40;;
16662;SDS011;8445;51.270;9.434;2024-03-23T06:20:25;6.63;;;6.40;;
16662;SDS011;8445;51.270;9.434;2024-03-23T06:22:53;7.00;;;6.70;;
16662;SDS011;8445;51.270;9.434;2024-03-23T06:25:19;6.80;;;6.50;;
16662;SDS011;8445;51.270;9.434;2024-03-23T06:27:45;7.13;;;6.83;;
16662;SDS011;8445;51.270;9.434;2024-03-23T06:30:11;6.60;;;6.40;;
16662;SDS011;8445;51.270;9.434;2024-03-23T06:32:38;7.20;;;6.70;;
16662;SDS011;8445;51.270;9.434;2024-03-23T06:35:04;6.67;;;6.37;;
16662;SDS011;8445;51.270;9.434;2024-03-23T06:37:42;6.43;;;6.13;;
16662;SDS011;8445;51.270;9.434;2024-03-23T06:40:08;6.10;;;5.90;;
16662;SDS011;8445;51.270;9.434;2024-03-23T06:42:38;5.80;;;5.60;;
16662;SDS011;8445;51.270;9.434;2024-03-23T06:45:06;5.90;;;5.70;;
16662;SDS011;8445;51.270;9.434;2024-03-23T06:47:33;6.90;;;6.60;;
16662;SDS011;8445;51.270;9.434;2024-03-23T06:50:02;6.20;;;6.00;;
16662;SDS011;8445;51.270;9.434;2024-03-23T06:52:29;6.10;;;5.90;;
16662;SDS011;8445;51.270;9.434;2024-03-23T06:54:58;5.80;;;5.60;;
16662;SDS011;8445;51.270;9.434;2024-03-23T06:57:24;6.10;;;5.90;;
16662;SDS011;8445;51.270;9.434;2024-03-23T06:59:51;8.30;;;5.70;;
16662;SDS011;8445;51.270;9.434;2024-03-23T07:02:17;6.07;;;5.67;;
16662;SDS011;8445;51.270;9.434;2024-03-23T07:04:43;5.90;;;5.60;;
16662;SDS011;8445;51.270;9.434;2024-03-23T07:07:09;5.80;;;5.60;;
16662;SDS011;8445;51.270;9.434;2024-03-23T07:09:35;6.10;;;5.90;;
16662;SDS011;8445;51.270;9.434;2024-03-23T07:12:02;6.00;;;5.80;;
16662;SDS011;8445;51.270;9.434;2024-03-23T07:14:32;6.07;;;5.67;;
16662;SDS011;8445;51.270;9.434;2024-03-23T07:16:58;6.10;;;5.60;;
16662;SDS011;8445;51.270;9.434;2024-03-23T07:19:26;5.83;;;5.40;;
16662;SDS011;8445;51.270;9.434;2024-03-23T07:21:57;5.97;;;5.40;;
16662;SDS011;8445;51.270;9.434;2024-03-23T07:24:25;5.50;;;5.30;;
16662;SDS011;8445;51.270;9.434;2024-03-23T07:27:02;5.80;;;5.50;;
16662;SDS011;8445;51.270;9.434;2024-03-23T07:32:43;6.57;;;6.07;;
16662;SDS011;8445;51.270;9.434;2024-03-23T07:35:27;5.73;;;5.43;;
16662;SDS011;8445;51.270;9.434;2024-03-23T07:38:27;5.90;;;5.63;;
16662;SDS011;8445;51.270;9.434;2024-03-23T07:41:26;6.37;;;5.93;;
16662;SDS011;8445;51.270;9.434;2024-03-23T07:44:15;6.20;;;5.80;;
16662;SDS011;8445;51.270;9.434;2024-03-23T07:47:05;5.77;;;5.47;;
16662;SDS011;8445;51.270;9.434;2024-03-23T07:50:01;8.23;;;5.40;;
16662;SDS011;8445;51.270;9.434;2024-03-23T07:55:57;6.70;;;6.00;;
16662;SDS011;8445;51.270;9.434;2024-03-23T07:59:19;5.47;;;5.28;;
16662;SDS011;8445;51.270;9.434;2024-03-23T08:02:04;6.47;;;5.87;;
16662;SDS011;8445;51.270;9.434;2024-03-23T08:04:54;6.17;;;5.73;;
16662;SDS011;8445;51.270;9.434;2024-03-23T08:07:42;5.97;;;5.67;;
16662;SDS011;8445;51.270;9.434;2024-03-23T08:10:31;6.60;;;5.80;;
16662;SDS011;8445;51.270;9.434;2024-03-23T08:13:20;11.40;;;6.83;;
16662;SDS011;8445;51.270;9.434;2024-03-23T08:16:08;6.40;;;5.80;;
16662;SDS011;8445;51.270;9.434;2024-03-23T08:18:57;6.10;;;5.80;;
16662;SDS011;8445;51.270;9.434;2024-03-23T08:21:46;6.43;;;6.07;;
16662;SDS011;8445;51.270;9.434;2024-03-23T08:24:36;6.30;;;5.97;;
16662;SDS011;8445;51.270;9.434;2024-03-23T08:27:23;7.50;;;5.80;;
16662;SDS011;8445;51.270;9.434;2024-03-23T08:30:13;7.88;;;6.20;;
16662;SDS011;8445;51.270;9.434;2024-03-23T08:33:00;8.55;;;6.78;;
16662;SDS011;8445;51.270;9.434;2024-03-23T08:38:39;7.35;;;6.45;;
16662;SDS011;8445;51.270;9.434;2024-03-23T08:41:39;10.88;;;6.45;;
16662;SDS011;8445;51.270;9.434;2024-03-23T08:44:31;6.93;;;6.30;;
16662;SDS011;8445;51.270;9.434;2024-03-23T08:47:17;6.38;;;5.90;;
16662;SDS011;8445;51.270;9.434;2024-03-23T08:50:27;7.67;;;6.13;;
16662;SDS011;8445;51.270;9.434;2024-03-23T08:52:53;6.03;;;5.63;;
16662;SDS011;8445;51.270;9.434;2024-03-23T08:55:24;11.00;;;5.93;;
16662;SDS011;8445;51.270;9.434;2024-03-23T08:57:50;6.65;;;6.00;;
16662;SDS011;8445;51.270;9.434;2024-03-23T09:00:22;8.15;;;6.25;;
16662;SDS011;8445;51.270;9.434;2024-03-23T09:02:48;7.65;;;6.95;;
16662;SDS011;8445;51.270;9.434;2024-03-23T09:05:15;6.80;;;6.18;;
16662;SDS011;8445;51.270;9.434;2024-03-23T09:07:48;5.38;;;5.07;;
16662;SDS011;8445;51.270;9.434;2024-03-23T09:10:20;8.88;;;6.15;;
16662;SDS011;8445;51.270;9.434;2024-03-23T09:12:48;6.95;;;6.40;;
16662;SDS011;8445;51.270;9.434;2024-03-23T09:15:15;6.57;;;5.97;;
16662;SDS011;8445;51.270;9.434;2024-03-23T09:17:43;6.85;;;6.25;;
16662;SDS011;8445;51.270;9.434;2024-03-23T09:20:10;6.82;;;6.35;;
16662;SDS011;8445;51.270;9.434;2024-03-23T09:22:58;8.45;;;6.95;;
16662;SDS011;8445;51.270;9.434;2024-03-23T09:25:25;6.85;;;6.25;;
16662;SDS011;8445;51.270;9.434;2024-03-23T09:27:56;11.27;;;6.32;;
16662;SDS011;8445;51.270;9.434;2024-03-23T09:30:23;7.30;;;6.60;;
16662;SDS011;8445;51.270;9.434;2024-03-23T09:32:49;8.40;;;7.40;;
16662;SDS011;8445;51.270;9.434;2024-03-23T09:35:15;8.25;;;7.45;;
16662;SDS011;8445;51.270;9.434;2024-03-23T09:37:41;12.70;;;8.27;;
16662;SDS011;8445;51.270;9.434;2024-03-23T09:40:09;9.10;;;8.50;;
16662;SDS011;8445;51.270;9.434;2024-03-23T09:42:36;11.75;;;10.07;;
16662;SDS011;8445;51.270;9.434;2024-03-23T09:45:06;12.30;;;8.83;;
16662;SDS011;8445;51.270;9.434;2024-03-23T09:47:48;10.35;;;9.40;;
16662;SDS011;8445;51.270;9.434;2024-03-23T09:50:18;9.35;;;8.52;;
16662;SDS011;8445;51.270;9.434;2024-03-23T09:52:46;9.10;;;8.10;;
16662;SDS011;8445;51.270;9.434;2024-03-23T09:55:15;8.80;;;7.68;;
16662;SDS011;8445;51.270;9.434;2024-03-23T09:57:46;10.18;;;9.45;;
16662;SDS011;8445;51.270;9.434;2024-03-23T10:00:17;11.40;;;10.50;;
16662;SDS011;8445;51.270;9.434;2024-03-23T10:02:49;10.45;;;9.48;;
16662;SDS011;8445;51.270;9.434;2024-03-23T10:05:36;9.55;;;8.68;;
16662;SDS011;8445;51.270;9.434;2024-03-23T10:10:45;9.50;;;8.07;;
16662;SDS011;8445;51.270;9.434;2024-03-23T10:13:26;8.80;;;8.10;;
16662;SDS011;8445;51.270;9.434;2024-03-23T10:15:59;11.73;;;10.40;;
16662;SDS011;8445;51.270;9.434;2024-03-23T10:18:26;8.75;;;8.05;;
16662;SDS011;8445;51.270;9.434;2024-03-23T10:23:32;9.93;;;8.13;;
16662;SDS011;8445;51.270;9.434;2024-03-23T10:26:21;7.78;;;7.18;;
16662;SDS011;8445;51.270;9.434;2024-03-23T10:29:01;9.68;;;8.98;;
16662;SDS011;8445;51.270;9.434;2024-03-23T10:31:39;9.18;;;8.40;;
16662;SDS011;8445;51.270;9.434;2024-03-23T10:34:06;10.48;;;7.43;;
16662;SDS011;8445;51.270;9.434;2024-03-23T10:36:34;11.15;;;7.75;;
16662;SDS011;8445;51.270;9.434;2024-03-23T10:39:03;9.32;;;7.22;;
16662;SDS011;8445;51.270;9.434;2024-03-23T10:41:33;12.75;;;9.68;;
16662;SDS011;8445;51.270;9.434;2024-03-23T10:44:00;10.68;;;8.23;;
16662;SDS011;8445;51.270;9.434;2024-03-23T10:46:57;8.20;;;7.47;;
16662;SDS011;8445;51.270;9.434;2024-03-23T10:49:51;8.20;;;7.53;;
16662;SDS011;8445;51.270;9.434;2024-03-23T10:52:41;8.20;;;7.50;;
16662;SDS011;8445;51.270;9.434;2024-03-23T10:55:13;7.63;;;7.05;;
16662;SDS011;8445;51.270;9.434;2024-03-23T10:58:14;8.95;;;7.30;;
16662;SDS011;8445;51.270;9.434;2024-03-23T11:00:55;8.85;;;6.72;;
16662;SDS011;8445;51.270;9.434;2024-03-23T11:06:05;7.97;;;7.07;;
16662;SDS011;8445;51.270;9.434;2024-03-23T11:08:37;7.50;;;6.53;;
16662;SDS011;8445;51.270;9.434;2024-03-23T11:13:50;6.32;;;5.93;;
16662;SDS011;8445;51.270;9.434;2024-03-23T11:22:04;5.57;;;5.18;;
16662;SDS011;8445;51.270;9.434;2024-03-23T11:24:31;10.30;;;5.85;;
16662;SDS011;8445;51.270;9.434;2024-03-23T11:26:57;8.70;;;8.30;;
16662;SDS011;8445;51.270;9.434;2024-03-23T11:29:29;7.80;;;7.45;;
16662;SDS011;8445;51.270;9.434;2024-03-23T11:31:56;8.50;;;8.00;;
16662;SDS011;8445;51.270;9.434;2024-03-23T11:34:22;7.88;;;7.38;;
16662;SDS011;8445;51.270;9.434;2024-03-23T11:36:48;8.00;;;7.40;;
16662;SDS011;8445;51.270;9.434;2024-03-23T11:39:18;8.15;;;7.53;;
16662;SDS011;8445;51.270;9.434;2024-03-23T11:41:48;8.52;;;8.02;;
16662;SDS011;8445;51.270;9.434;2024-03-23T11:46:44;8.75;;;8.00;;
16662;SDS011;8445;51.270;9.434;2024-03-23T11:49:25;9.07;;;8.20;;
16662;SDS011;8445;51.270;9.434;2024-03-23T11:51:54;8.82;;;8.13;;
16662;SDS011;8445;51.270;9.434;2024-03-23T11:54:25;8.35;;;7.93;;
16662;SDS011;8445;51.270;9.434;2024-03-23T11:56:58;6.50;;;5.90;;
16662;SDS011;8445;51.270;9.434;2024-03-23T11:59:38;5.10;;;4.80;;
16662;SDS011;8445;51.270;9.434;2024-03-23T12:02:07;4.43;;;4.22;;
16662;SDS011;8445;51.270;9.434;2024-03-23T12:04:33;4.85;;;4.65;;
16662;SDS011;8445;51.270;9.434;2024-03-23T12:07:17;4.97;;;4.55;;
16662;SDS011;8445;51.270;9.434;2024-03-23T12:09:45;4.82;;;4.63;;
16662;SDS011;8445;51.270;9.434;2024-03-23T12:12:14;4.80;;;4.60;;
16662;SDS011;8445;51.270;9.434;2024-03-23T12:14:42;8.05;;;5.63;;
16662;SDS011;8445;51.270;9.434;2024-03-23T12:19:41;5.80;;;5.50;;
16662;SDS011;8445;51.270;9.434;2024-03-23T12:22:10;6.03;;;5.75;;
16662;SDS011;8445;51.270;9.434;2024-03-23T12:24:36;8.75;;;7.35;;
16662;SDS011;8445;51.270;9.434;2024-03-23T12:27:04;8.40;;;8.00;;
16662;SDS011;8445;51.270;9.434;2024-03-23T12:29:31;8.30;;;7.90;;
16662;SDS011;8445;51.270;9.434;2024-03-23T12:31:59;7.75;;;7.35;;
16662;SDS011;8445;51.270;9.434;2024-03-23T12:34:27;7.40;;;7.10;;
16662;SDS011;8445;51.270;9.434;2024-03-23T12:36:53;7.72;;;7.22;;
16662;SDS011;8445;51.270;9.434;2024-03-23T12:39:20;7.95;;;7.57;;
16662;SDS011;8445;51.270;9.434;2024-03-23T12:41:48;7.82;;;7.43;;
16662;SDS011;8445;51.270;9.434;2024-03-23T12:44:15;7.90;;;7.27;;
16662;SDS011;8445;51.270;9.434;2024-03-23T12:46:41;7.63;;;7.22;;
16662;SDS011;8445;51.270;9.434;2024-03-23T12:49:08;7.40;;;7.03;;
16662;SDS011;8445;51.270;9.434;2024-03-23T12:51:34;7.53;;;7.22;;
16662;SDS011;8445;51.270;9.434;2024-03-23T12:54:01;7.80;;;7.40;;
16662;SDS011;8445;51.270;9.434;2024-03-23T12:56:34;8.35;;;7.78;;
16662;SDS011;8445;51.270;9.434;2024-03-23T12:59:01;8.10;;;7.60;;
16662;SDS011;8445;51.270;9.434;2024-03-23T13:01:28;7.50;;;7.10;;
16662;SDS011;8445;51.270;9.434;2024-03-23T13:03:56;8.57;;;7.82;;
16662;SDS011;8445;51.270;9.434;2024-03-23T13:06:26;7.60;;;7.30;;
16662;SDS011;8445;51.270;9.434;2024-03-23T13:09:03;8.48;;;7.70;;
16662;SDS011;8445;51.270;9.434;2024-03-23T13:11:33;8.02;;;7.53;;
16662;SDS011;8445;51.270;9.434;2024-03-23T13:13:59;10.85;;;7.50;;
16662;SDS011;8445;51.270;9.434;2024-03-23T13:16:25;6.47;;;6.07;;
16662;SDS011;8445;51.270;9.434;2024-03-23T13:18:51;5.32;;;5.03;;
16662;SDS011;8445;51.270;9.434;2024-03-23T13:21:17;6.00;;;5.60;;
16662;SDS011;8445;51.270;9.434;2024-03-23T13:23:46;5.55;;;5.15;;
16662;SDS011;8445;51.270;9.434;2024-03-23T13:26:14;6.00;;;5.60;;
16662;SDS011;8445;51.270;9.434;2024-03-23T13:28:40;7.07;;;5.25;;
16662;SDS011;8445;51.270;9.434;2024-03-23T13:31:06;5.78;;;5.40;;
16662;SDS011;8445;51.270;9.434;2024-03-23T13:33:33;5.75;;;5.25;;
16662;SDS011;8445;51.270;9.434;2024-03-23T13:35:59;5.75;;;5.32;;
16662;SDS011;8445;51.270;9.434;2024-03-23T13:38:25;5.68;;;5.32;;
16662;SDS011;8445;51.270;9.434;2024-03-23T13:43:23;6.22;;;5.63;;
16662;SDS011;8445;51.270;9.434;2024-03-23T13:45:57;5.82;;;5.43;;
16662;SDS011;8445;51.270;9.434;2024-03-23T13:48:25;5.53;;;5.32;;
16662;SDS011;8445;51.270;9.434;2024-03-23T13:53:25;4.97;;;4.78;;
16662;SDS011;8445;51.270;9.434;2024-03-23T13:55:51;8.35;;;7.75;;
16662;SDS011;8445;51.270;9.434;2024-03-23T13:58:18;7.88;;;7.40;;
16662;SDS011;8445;51.270;9.434;2024-03-23T14:00:44;6.65;;;6.35;;
16662;SDS011;8445;51.270;9.434;2024-03-23T14:03:10;6.80;;;6.50;;
16662;SDS011;8445;51.270;9.434;2024-03-23T14:05:37;6.70;;;6.30;;
16662;SDS011;8445;51.270;9.434;2024-03-23T14:08:06;6.28;;;5.97;;
16662;SDS011;8445;51.270;9.434;2024-03-23T14:10:36;6.40;;;6.20;;
16662;SDS011;8445;51.270;9.434;2024-03-23T14:13:06;6.93;;;6.63;;
16662;SDS011;8445;51.270;9.434;2024-03-23T14:15:32;6.50;;;6.15;;
16662;SDS011;8445;51.270;9.434;2024-03-23T14:17:58;6.60;;;6.30;;
16662;SDS011;8445;51.270;9.434;2024-03-23T14:20:24;6.57;;;6.28;;
16662;SDS011;8445;51.270;9.434;2024-03-23T14:22:56;7.75;;;7.25;;
16662;SDS011;8445;51.270;9.434;2024-03-23T14:25:22;5.55;;;5.15;;
16662;SDS011;8445;51.270;9.434;2024-03-23T14:27:52;6.43;;;6.13;;
16662;SDS011;8445;51.270;9.434;2024-03-23T14:30:18;6.22;;;5.88;;
16662;SDS011;8445;51.270;9.434;2024-03-23T14:32:44;6.40;;;6.00;;
16662;SDS011;8445;51.270;9.434;2024-03-23T14:35:11;5.30;;;5.00;;
16662;SDS011;8445;51.270;9.434;2024-03-23T14:37:37;4.90;;;4.60;;
16662;SDS011;8445;51.270;9.434;2024-03-23T14:40:03;5.20;;;5.00;;
16662;SDS011;8445;51.270;9.434;2024-03-23T14:42:30;5.32;;;5.03;;
16662;SDS011;8445;51.270;9.434;2024-03-23T14:44:57;5.75;;;5.35;;
16662;SDS011;8445;51.270;9.434;2024-03-23T14:47:24;6.10;;;5.70;;
16662;SDS011;8445;51.270;9.434;2024-03-23T14:49:50;6.20;;;5.90;;
16662;SDS011;8445;51.270;9.434;2024-03-23T14:52:16;6.78;;;6.13;;
16662;SDS011;8445;51.270;9.434;2024-03-23T14:54:43;6.53;;;5.97;;
16662;SDS011;8445;51.270;9.434;2024-03-23T14:57:10;6.50;;;6.20;;
16662;SDS011;8445;51.270;9.434;2024-03-23T14:59:36;5.60;;;5.30;;
16662;SDS011;8445;51.270;9.434;2024-03-23T15:02:06;5.97;;;5.53;;
16662;SDS011;8445;51.270;9.434;2024-03-23T15:04:32;5.38;;;5.07;;
16662;SDS011;8445;51.270;9.434;2024-03-23T15:06:59;6.72;;;6.22;;
16662;SDS011;8445;51.270;9.434;2024-03-23T15:09:25;6.75;;;6.13;;
16662;SDS011;8445;51.270;9.434;2024-03-23T15:11:51;6.32;;;5.88;;
16662;SDS011;8445;51.270;9.434;2024-03-23T15:14:20;6.13;;;5.82;;
16662;SDS011;8445;51.270;9.434;2024-03-23T15:16:46;5.40;;;5.10;;
16662;SDS011;8445;51.270;9.434;2024-03-23T15:19:14;5.75;;;5.35;;
16662;SDS011;8445;51.270;9.434;2024-03-23T15:21:43;5.72;;;5.50;;
16662;SDS011;8445;51.270;9.434;2024-03-23T15:24:09;7.50;;;6.80;;
16662;SDS011;8445;51.270;9.434;2024-03-23T15:26:38;5.50;;;5.22;;
16662;SDS011;8445;51.270;9.434;2024-03-23T15:29:05;5.50;;;5.30;;
16662;SDS011;8445;51.270;9.434;2024-03-23T15:31:41;5.68;;;5.38;;
16662;SDS011;8445;51.270;9.434;2024-03-23T15:34:08;5.75;;;5.43;;
16662;SDS011;8445;51.270;9.434;2024-03-23T15:36:37;5.72;;;5.53;;
16662;SDS011;8445;51.270;9.434;2024-03-23T15:39:05;5.78;;;5.47;;
16662;SDS011;8445;51.270;9.434;2024-03-23T15:41:32;5.85;;;5.30;;
16662;SDS011;8445;51.270;9.434;2024-03-23T15:44:03;5.47;;;5.20;;
16662;SDS011;8445;51.270;9.434;2024-03-23T15:46:29;5.65;;;5.35;;
16662;SDS011;8445;51.270;9.434;2024-03-23T15:48:55;5.40;;;5.03;;
16662;SDS011;8445;51.270;9.434;2024-03-23T15:51:21;5.30;;;5.10;;
16662;SDS011;8445;51.270;9.434;2024-03-23T15:53:47;5.35;;;5.15;;
16662;SDS011;8445;51.270;9.434;2024-03-23T15:56:13;5.43;;;5.13;;
16662;SDS011;8445;51.270;9.434;2024-03-23T15:58:39;5.15;;;4.95;;
16662;SDS011;8445;51.270;9.434;2024-03-23T16:01:06;4.85;;;4.65;;
16662;SDS011;8445;51.270;9.434;2024-03-23T16:03:39;5.00;;;4.80;;
16662;SDS011;8445;51.270;9.434;2024-03-23T16:06:05;5.00;;;4.70;;
16662;SDS011;8445;51.270;9.434;2024-03-23T16:08:35;6.93;;;4.88;;
16662;SDS011;8445;51.270;9.434;2024-03-23T16:11:02;5.07;;;4.70;;
16662;SDS011;8445;51.270;9.434;2024-03-23T16:13:31;5.30;;;4.83;;
16662;SDS011;8445;51.270;9.434;2024-03-23T16:16:01;4.88;;;4.68;;
16662;SDS011;8445;51.270;9.434;2024-03-23T16:18:33;5.03;;;4.82;;
16662;SDS011;8445;51.270;9.434;2024-03-23T16:21:01;5.47;;;5.18;;
16662;SDS011;8445;51.270;9.434;2024-03-23T16:23:30;6.00;;;5.50;;
16662;SDS011;8445;51.270;9.434;2024-03-23T16:26:05;5.38;;;4.97;;
16662;SDS011;8445;51.270;9.434;2024-03-23T16:28:33;4.65;;;4.35;;
16662;SDS011;8445;51.270;9.434;2024-03-23T16:31:03;6.13;;;5.47;;
16662;SDS011;8445;51.270;9.434;2024-03-23T16:33:34;5.35;;;4.90;;
16662;SDS011;8445;51.270;9.434;2024-03-23T16:36:02;5.72;;;5.22;;
16662;SDS011;8445;51.270;9.434;2024-03-23T16:38:31;4.90;;;4.70;;
16662;SDS011;8445;51.270;9.434;2024-03-23T16:41:06;5.30;;;5.00;;
16662;SDS011;8445;51.270;9.434;2024-03-23T16:43:34;4.90;;;4.70;;
16662;SDS011;8445;51.270;9.434;2024-03-23T16:46:03;4.72;;;4.53;;
16662;SDS011;8445;51.270;9.434;2024-03-23T16:48:30;4.43;;;4.25;;
16662;SDS011;8445;51.270;9.434;2024-03-23T16:51:00;5.80;;;5.30;;